sensor_id;sensor_type;location;lat;lon;timestamp;P1;durP1;ratioP1;P2;durP2;ratioP2
42364;SDS011;28498;54.400;18.566;2024-01-30T00:00:47;36.42;;;17.08;;
42364;SDS011;28498;54.400;18.566;2024-01-30T00:03:14;40.13;;;17.70;;
42364;SDS011;28498;54.400;18.566;2024-01-30T00:05:41;35.30;;;16.00;;
42364;SDS011;28498;54.400;18.566;2024-01-30T00:08:08;37.72;;;19.35;;
42364;SDS011;28498;54.400;18.566;2024-01-30T00:10:54;36.30;;;18.23;;
42364;SDS011;28498;54.400;18.566;2024-01-30T00:13:21;37.55;;;16.00;;
42364;SDS011;28498;54.400;18.566;2024-01-30T00:15:49;37.60;;;17.90;;
42364;SDS011;28498;54.400;18.566;2024-01-30T00:18:16;34.03;;;15.52;;
42364;SDS011;28498;54.400;18.566;2024-01-30T00:20:45;41.05;;;16.75;;
42364;SDS011;28498;54.400;18.566;2024-01-30T00:23:12;38.03;;;16.05;;
42364;SDS011;28498;54.400;18.566;2024-01-30T00:25:39;35.42;;;18.30;;
42364;SDS011;28498;54.400;18.566;2024-01-30T00:28:06;39.53;;;17.90;;
42364;SDS011;28498;54.400;18.566;2024-01-30T00:30:33;37.58;;;17.23;;
42364;SDS011;28498;54.400;18.566;2024-01-30T00:33:00;37.15;;;16.42;;
42364;SDS011;28498;54.400;18.566;2024-01-30T00:35:27;37.40;;;17.63;;
42364;SDS011;28498;54.400;18.566;2024-01-30T00:37:55;36.42;;;17.00;;
42364;SDS011;28498;54.400;18.566;2024-01-30T00:40:23;39.78;;;19.13;;
42364;SDS011;28498;54.400;18.566;2024-01-30T00:42:50;42.35;;;19.60;;
42364;SDS011;28498;54.400;18.566;2024-01-30T00:45:18;40.22;;;18.58;;
42364;SDS011;28498;54.400;18.566;2024-01-30T00:47:45;45.85;;;20.13;;
42364;SDS011;28498;54.400;18.566;2024-01-30T00:50:12;36.67;;;17.50;;
42364;SDS011;28498;54.400;18.566;2024-01-30T00:52:39;36.30;;;17.27;;
42364;SDS011;28498;54.400;18.566;2024-01-30T00:55:07;47.13;;;19.58;;
42364;SDS011;28498;54.400;18.566;2024-01-30T00:57:34;37.45;;;18.95;;
42364;SDS011;28498;54.400;18.566;2024-01-30T01:00:02;32.63;;;18.52;;
42364;SDS011;28498;54.400;18.566;2024-01-30T01:02:29;50.25;;;22.77;;
42364;SDS011;28498;54.400;18.566;2024-01-30T01:04:56;46.03;;;20.92;;
42364;SDS011;28498;54.400;18.566;2024-01-30T01:07:24;42.25;;;20.55;;
42364;SDS011;28498;54.400;18.566;2024-01-30T01:09:51;47.50;;;20.90;;
42364;SDS011;28498;54.400;18.566;2024-01-30T01:12:18;52.83;;;20.90;;
42364;SDS011;28498;54.400;18.566;2024-01-30T01:14:46;47.88;;;22.08;;
42364;SDS011;28498;54.400;18.566;2024-01-30T01:17:12;55.95;;;22.13;;
42364;SDS011;28498;54.400;18.566;2024-01-30T01:19:39;49.60;;;21.55;;
42364;SDS011;28498;54.400;18.566;2024-01-30T01:22:07;47.85;;;21.75;;
42364;SDS011;28498;54.400;18.566;2024-01-30T01:24:35;54.47;;;22.90;;
42364;SDS011;28498;54.400;18.566;2024-01-30T01:27:02;50.97;;;23.55;;
42364;SDS011;28498;54.400;18.566;2024-01-30T01:29:30;58.80;;;23.27;;
42364;SDS011;28498;54.400;18.566;2024-01-30T01:31:57;50.00;;;23.90;;
42364;SDS011;28498;54.400;18.566;2024-01-30T01:34:24;61.25;;;23.83;;
42364;SDS011;28498;54.400;18.566;2024-01-30T01:36:56;59.70;;;24.52;;
42364;SDS011;28498;54.400;18.566;2024-01-30T01:39:23;54.67;;;24.50;;
42364;SDS011;28498;54.400;18.566;2024-01-30T01:41:50;58.53;;;26.58;;
42364;SDS011;28498;54.400;18.566;2024-01-30T01:44:17;53.17;;;24.70;;
42364;SDS011;28498;54.400;18.566;2024-01-30T01:46:45;56.42;;;26.10;;
42364;SDS011;28498;54.400;18.566;2024-01-30T01:49:13;57.40;;;25.67;;
42364;SDS011;28498;54.400;18.566;2024-01-30T01:51:41;52.17;;;24.75;;
42364;SDS011;28498;54.400;18.566;2024-01-30T01:54:11;59.28;;;25.45;;
42364;SDS011;28498;54.400;18.566;2024-01-30T01:56:38;53.90;;;23.98;;
42364;SDS011;28498;54.400;18.566;2024-01-30T01:59:06;54.75;;;24.38;;
42364;SDS011;28498;54.400;18.566;2024-01-30T02:01:38;49.65;;;21.83;;
42364;SDS011;28498;54.400;18.566;2024-01-30T02:04:07;48.90;;;23.92;;
42364;SDS011;28498;54.400;18.566;2024-01-30T02:06:34;43.40;;;20.88;;
42364;SDS011;28498;54.400;18.566;2024-01-30T02:09:02;46.65;;;21.60;;
42364;SDS011;28498;54.400;18.566;2024-01-30T02:11:31;45.35;;;20.10;;
42364;SDS011;28498;54.400;18.566;2024-01-30T02:14:02;44.90;;;20.45;;
42364;SDS011;28498;54.400;18.566;2024-01-30T02:16:31;44.92;;;18.98;;
42364;SDS011;28498;54.400;18.566;2024-01-30T02:18:58;45.13;;;20.58;;
42364;SDS011;28498;54.400;18.566;2024-01-30T02:21:25;39.88;;;19.60;;
42364;SDS011;28498;54.400;18.566;2024-01-30T02:23:52;44.25;;;20.02;;
42364;SDS011;28498;54.400;18.566;2024-01-30T02:26:22;45.88;;;20.20;;
42364;SDS011;28498;54.400;18.566;2024-01-30T02:28:49;46.55;;;19.55;;
42364;SDS011;28498;54.400;18.566;2024-01-30T02:31:16;40.40;;;18.42;;
42364;SDS011;28498;54.400;18.566;2024-01-30T02:33:43;35.67;;;18.70;;
42364;SDS011;28498;54.400;18.566;2024-01-30T02:36:10;46.15;;;18.42;;
42364;SDS011;28498;54.400;18.566;2024-01-30T02:38:37;39.97;;;19.13;;
42364;SDS011;28498;54.400;18.566;2024-01-30T02:41:04;40.00;;;19.35;;
42364;SDS011;28498;54.400;18.566;2024-01-30T02:43:31;48.00;;;19.58;;
42364;SDS011;28498;54.400;18.566;2024-01-30T02:45:58;45.30;;;18.27;;
42364;SDS011;28498;54.400;18.566;2024-01-30T02:48:27;38.90;;;18.42;;
42364;SDS011;28498;54.400;18.566;2024-01-30T02:50:54;44.50;;;18.27;;
42364;SDS011;28498;54.400;18.566;2024-01-30T02:53:21;40.60;;;19.27;;
42364;SDS011;28498;54.400;18.566;2024-01-30T02:55:48;38.65;;;18.50;;
42364;SDS011;28498;54.400;18.566;2024-01-30T02:58:15;42.05;;;19.38;;
42364;SDS011;28498;54.400;18.566;2024-01-30T03:00:42;41.17;;;19.30;;
42364;SDS011;28498;54.400;18.566;2024-01-30T03:03:10;49.00;;;20.92;;
42364;SDS011;28498;54.400;18.566;2024-01-30T03:05:37;38.35;;;19.27;;
42364;SDS011;28498;54.400;18.566;2024-01-30T03:08:04;42.58;;;19.08;;
42364;SDS011;28498;54.400;18.566;2024-01-30T03:10:32;43.20;;;18.45;;
42364;SDS011;28498;54.400;18.566;2024-01-30T03:12:59;40.88;;;18.23;;
42364;SDS011;28498;54.400;18.566;2024-01-30T03:15:26;39.58;;;18.80;;
42364;SDS011;28498;54.400;18.566;2024-01-30T03:17:53;40.70;;;18.40;;
42364;SDS011;28498;54.400;18.566;2024-01-30T03:20:20;44.58;;;18.67;;
42364;SDS011;28498;54.400;18.566;2024-01-30T03:22:47;39.63;;;19.23;;
42364;SDS011;28498;54.400;18.566;2024-01-30T03:25:14;39.70;;;19.50;;
42364;SDS011;28498;54.400;18.566;2024-01-30T03:27:42;35.75;;;17.83;;
42364;SDS011;28498;54.400;18.566;2024-01-30T03:30:09;40.22;;;19.27;;
42364;SDS011;28498;54.400;18.566;2024-01-30T03:32:36;41.92;;;18.77;;
42364;SDS011;28498;54.400;18.566;2024-01-30T03:35:03;37.80;;;17.92;;
42364;SDS011;28498;54.400;18.566;2024-01-30T03:37:31;41.97;;;19.48;;
42364;SDS011;28498;54.400;18.566;2024-01-30T03:39:58;46.72;;;18.70;;
42364;SDS011;28498;54.400;18.566;2024-01-30T03:42:25;41.78;;;18.25;;
42364;SDS011;28498;54.400;18.566;2024-01-30T03:44:52;36.10;;;19.73;;
42364;SDS011;28498;54.400;18.566;2024-01-30T03:47:20;40.83;;;19.80;;
42364;SDS011;28498;54.400;18.566;2024-01-30T03:49:47;38.10;;;17.15;;
42364;SDS011;28498;54.400;18.566;2024-01-30T03:52:14;38.78;;;17.70;;
42364;SDS011;28498;54.400;18.566;2024-01-30T03:54:41;40.28;;;17.70;;
42364;SDS011;28498;54.400;18.566;2024-01-30T03:57:08;44.90;;;19.40;;
42364;SDS011;28498;54.400;18.566;2024-01-30T03:59:35;43.33;;;17.67;;
42364;SDS011;28498;54.400;18.566;2024-01-30T04:02:02;41.42;;;18.08;;
42364;SDS011;28498;54.400;18.566;2024-01-30T04:04:31;43.00;;;20.23;;
42364;SDS011;28498;54.400;18.566;2024-01-30T04:06:58;39.65;;;18.42;;
42364;SDS011;28498;54.400;18.566;2024-01-30T04:09:25;51.30;;;19.50;;
42364;SDS011;28498;54.400;18.566;2024-01-30T04:11:53;43.55;;;19.65;;
42364;SDS011;28498;54.400;18.566;2024-01-30T04:14:20;36.90;;;18.13;;
42364;SDS011;28498;54.400;18.566;2024-01-30T04:16:46;48.08;;;20.38;;
42364;SDS011;28498;54.400;18.566;2024-01-30T04:19:13;44.80;;;18.60;;
42364;SDS011;28498;54.400;18.566;2024-01-30T04:21:41;44.88;;;20.70;;
42364;SDS011;28498;54.400;18.566;2024-01-30T04:24:08;49.58;;;20.70;;
42364;SDS011;28498;54.400;18.566;2024-01-30T04:26:35;53.95;;;22.20;;
42364;SDS011;28498;54.400;18.566;2024-01-30T04:29:03;44.22;;;19.33;;
42364;SDS011;28498;54.400;18.566;2024-01-30T04:31:30;44.45;;;22.73;;
42364;SDS011;28498;54.400;18.566;2024-01-30T04:33:57;50.20;;;22.55;;
42364;SDS011;28498;54.400;18.566;2024-01-30T04:36:24;44.97;;;21.25;;
42364;SDS011;28498;54.400;18.566;2024-01-30T04:38:51;48.03;;;21.35;;
42364;SDS011;28498;54.400;18.566;2024-01-30T04:41:18;57.70;;;21.70;;
42364;SDS011;28498;54.400;18.566;2024-01-30T04:43:45;44.88;;;20.90;;
42364;SDS011;28498;54.400;18.566;2024-01-30T04:46:12;44.65;;;19.52;;
42364;SDS011;28498;54.400;18.566;2024-01-30T04:48:39;47.83;;;22.00;;
42364;SDS011;28498;54.400;18.566;2024-01-30T04:51:06;46.15;;;21.35;;
42364;SDS011;28498;54.400;18.566;2024-01-30T04:53:33;50.75;;;20.73;;
42364;SDS011;28498;54.400;18.566;2024-01-30T04:56:00;49.65;;;21.67;;
42364;SDS011;28498;54.400;18.566;2024-01-30T04:58:27;38.60;;;19.20;;
42364;SDS011;28498;54.400;18.566;2024-01-30T05:00:54;48.45;;;18.98;;
42364;SDS011;28498;54.400;18.566;2024-01-30T05:03:23;43.67;;;21.23;;
42364;SDS011;28498;54.400;18.566;2024-01-30T05:05:51;42.35;;;19.02;;
42364;SDS011;28498;54.400;18.566;2024-01-30T05:08:17;39.83;;;18.92;;
42364;SDS011;28498;54.400;18.566;2024-01-30T05:10:44;43.60;;;20.20;;
42364;SDS011;28498;54.400;18.566;2024-01-30T05:13:12;50.58;;;21.33;;
42364;SDS011;28498;54.400;18.566;2024-01-30T05:15:40;46.10;;;19.38;;
42364;SDS011;28498;54.400;18.566;2024-01-30T05:18:07;48.47;;;20.83;;
42364;SDS011;28498;54.400;18.566;2024-01-30T05:20:34;43.83;;;19.65;;
42364;SDS011;28498;54.400;18.566;2024-01-30T05:23:01;44.97;;;21.10;;
42364;SDS011;28498;54.400;18.566;2024-01-30T05:25:28;50.55;;;22.17;;
42364;SDS011;28498;54.400;18.566;2024-01-30T05:27:55;41.67;;;19.45;;
42364;SDS011;28498;54.400;18.566;2024-01-30T05:30:22;41.90;;;20.83;;
42364;SDS011;28498;54.400;18.566;2024-01-30T05:32:49;49.42;;;22.20;;
42364;SDS011;28498;54.400;18.566;2024-01-30T05:35:16;49.92;;;22.50;;
42364;SDS011;28498;54.400;18.566;2024-01-30T05:37:43;49.97;;;24.48;;
42364;SDS011;28498;54.400;18.566;2024-01-30T05:40:10;52.85;;;23.98;;
42364;SDS011;28498;54.400;18.566;2024-01-30T05:42:38;50.03;;;23.15;;
42364;SDS011;28498;54.400;18.566;2024-01-30T05:45:05;49.50;;;22.50;;
42364;SDS011;28498;54.400;18.566;2024-01-30T05:47:32;45.90;;;21.48;;
42364;SDS011;28498;54.400;18.566;2024-01-30T05:50:00;49.10;;;22.85;;
42364;SDS011;28498;54.400;18.566;2024-01-30T05:52:27;46.00;;;20.95;;
42364;SDS011;28498;54.400;18.566;2024-01-30T05:54:54;50.63;;;22.33;;
42364;SDS011;28498;54.400;18.566;2024-01-30T05:57:21;48.25;;;21.42;;
42364;SDS011;28498;54.400;18.566;2024-01-30T05:59:48;46.55;;;22.35;;
42364;SDS011;28498;54.400;18.566;2024-01-30T06:02:15;51.83;;;22.48;;
42364;SDS011;28498;54.400;18.566;2024-01-30T06:04:42;48.80;;;21.92;;
42364;SDS011;28498;54.400;18.566;2024-01-30T06:07:11;48.65;;;21.95;;
42364;SDS011;28498;54.400;18.566;2024-01-30T06:09:38;45.88;;;22.20;;
42364;SDS011;28498;54.400;18.566;2024-01-30T06:12:05;41.45;;;22.83;;
42364;SDS011;28498;54.400;18.566;2024-01-30T06:14:32;53.85;;;23.40;;
42364;SDS011;28498;54.400;18.566;2024-01-30T06:16:59;50.20;;;23.25;;
42364;SDS011;28498;54.400;18.566;2024-01-30T06:19:26;49.05;;;21.52;;
42364;SDS011;28498;54.400;18.566;2024-01-30T06:21:54;54.55;;;22.55;;
42364;SDS011;28498;54.400;18.566;2024-01-30T06:24:21;48.67;;;22.38;;
42364;SDS011;28498;54.400;18.566;2024-01-30T06:26:48;49.28;;;22.55;;
42364;SDS011;28498;54.400;18.566;2024-01-30T06:29:15;43.80;;;21.90;;
42364;SDS011;28498;54.400;18.566;2024-01-30T06:31:45;50.05;;;22.02;;
42364;SDS011;28498;54.400;18.566;2024-01-30T06:34:12;56.00;;;23.48;;
42364;SDS011;28498;54.400;18.566;2024-01-30T06:36:40;54.72;;;25.63;;
42364;SDS011;28498;54.400;18.566;2024-01-30T06:39:07;51.83;;;23.20;;
42364;SDS011;28498;54.400;18.566;2024-01-30T06:41:34;41.83;;;21.17;;
42364;SDS011;28498;54.400;18.566;2024-01-30T06:44:04;47.45;;;23.85;;
42364;SDS011;28498;54.400;18.566;2024-01-30T06:46:32;49.63;;;23.08;;
42364;SDS011;28498;54.400;18.566;2024-01-30T06:49:00;52.85;;;23.50;;
42364;SDS011;28498;54.400;18.566;2024-01-30T06:51:27;51.13;;;20.95;;
42364;SDS011;28498;54.400;18.566;2024-01-30T06:53:54;44.88;;;22.17;;
42364;SDS011;28498;54.400;18.566;2024-01-30T06:56:21;49.80;;;21.33;;
42364;SDS011;28498;54.400;18.566;2024-01-30T06:58:52;50.47;;;22.33;;
42364;SDS011;28498;54.400;18.566;2024-01-30T07:01:19;52.88;;;23.92;;
42364;SDS011;28498;54.400;18.566;2024-01-30T07:03:46;53.65;;;23.55;;
42364;SDS011;28498;54.400;18.566;2024-01-30T07:06:13;51.58;;;22.48;;
42364;SDS011;28498;54.400;18.566;2024-01-30T07:08:40;43.75;;;21.10;;
42364;SDS011;28498;54.400;18.566;2024-01-30T07:11:07;52.95;;;23.83;;
42364;SDS011;28498;54.400;18.566;2024-01-30T07:13:34;51.00;;;23.52;;
42364;SDS011;28498;54.400;18.566;2024-01-30T07:16:01;45.55;;;20.05;;
42364;SDS011;28498;54.400;18.566;2024-01-30T07:18:29;47.33;;;23.30;;
42364;SDS011;28498;54.400;18.566;2024-01-30T07:20:56;49.30;;;21.05;;
42364;SDS011;28498;54.400;18.566;2024-01-30T07:23:23;46.00;;;21.20;;
42364;SDS011;28498;54.400;18.566;2024-01-30T07:25:50;39.25;;;18.05;;
42364;SDS011;28498;54.400;18.566;2024-01-30T07:28:17;43.97;;;19.95;;
42364;SDS011;28498;54.400;18.566;2024-01-30T07:30:44;45.95;;;20.58;;
42364;SDS011;28498;54.400;18.566;2024-01-30T07:33:12;38.17;;;18.42;;
42364;SDS011;28498;54.400;18.566;2024-01-30T07:35:39;39.13;;;18.73;;
42364;SDS011;28498;54.400;18.566;2024-01-30T07:38:06;37.50;;;17.50;;
42364;SDS011;28498;54.400;18.566;2024-01-30T07:40:33;35.30;;;18.13;;
42364;SDS011;28498;54.400;18.566;2024-01-30T07:43:00;34.55;;;17.08;;
42364;SDS011;28498;54.400;18.566;2024-01-30T07:45:29;34.72;;;16.85;;
42364;SDS011;28498;54.400;18.566;2024-01-30T07:48:00;30.17;;;15.45;;
42364;SDS011;28498;54.400;18.566;2024-01-30T07:50:27;30.10;;;16.08;;
42364;SDS011;28498;54.400;18.566;2024-01-30T07:52:58;33.78;;;16.38;;
42364;SDS011;28498;54.400;18.566;2024-01-30T07:55:26;30.85;;;14.20;;
42364;SDS011;28498;54.400;18.566;2024-01-30T07:57:58;35.40;;;14.45;;
42364;SDS011;28498;54.400;18.566;2024-01-30T08:00:25;31.55;;;14.48;;
42364;SDS011;28498;54.400;18.566;2024-01-30T08:02:53;32.95;;;15.65;;
42364;SDS011;28498;54.400;18.566;2024-01-30T08:05:22;29.90;;;13.15;;
42364;SDS011;28498;54.400;18.566;2024-01-30T08:07:50;32.63;;;15.30;;
42364;SDS011;28498;54.400;18.566;2024-01-30T08:10:17;31.23;;;15.18;;
42364;SDS011;28498;54.400;18.566;2024-01-30T08:12:45;32.85;;;15.30;;
42364;SDS011;28498;54.400;18.566;2024-01-30T08:15:12;30.35;;;15.30;;
42364;SDS011;28498;54.400;18.566;2024-01-30T08:17:39;33.20;;;15.15;;
42364;SDS011;28498;54.400;18.566;2024-01-30T08:20:07;27.67;;;14.90;;
42364;SDS011;28498;54.400;18.566;2024-01-30T08:22:39;32.50;;;15.02;;
42364;SDS011;28498;54.400;18.566;2024-01-30T08:25:07;35.15;;;17.70;;
42364;SDS011;28498;54.400;18.566;2024-01-30T08:27:36;35.70;;;17.85;;
42364;SDS011;28498;54.400;18.566;2024-01-30T08:30:08;34.83;;;16.60;;
42364;SDS011;28498;54.400;18.566;2024-01-30T08:32:35;33.92;;;15.18;;
42364;SDS011;28498;54.400;18.566;2024-01-30T08:35:02;33.22;;;14.73;;
42364;SDS011;28498;54.400;18.566;2024-01-30T08:37:30;29.83;;;14.30;;
42364;SDS011;28498;54.400;18.566;2024-01-30T08:39:57;34.15;;;15.70;;
42364;SDS011;28498;54.400;18.566;2024-01-30T08:42:24;38.03;;;16.55;;
42364;SDS011;28498;54.400;18.566;2024-01-30T08:44:51;32.38;;;15.48;;
42364;SDS011;28498;54.400;18.566;2024-01-30T08:47:19;33.80;;;15.88;;
42364;SDS011;28498;54.400;18.566;2024-01-30T08:49:46;32.45;;;16.35;;
42364;SDS011;28498;54.400;18.566;2024-01-30T08:52:13;30.55;;;15.07;;
42364;SDS011;28498;54.400;18.566;2024-01-30T08:54:40;32.53;;;16.13;;
42364;SDS011;28498;54.400;18.566;2024-01-30T08:57:08;30.17;;;16.27;;
42364;SDS011;28498;54.400;18.566;2024-01-30T08:59:35;37.60;;;17.10;;
42364;SDS011;28498;54.400;18.566;2024-01-30T09:02:02;34.42;;;18.13;;
42364;SDS011;28498;54.400;18.566;2024-01-30T09:04:38;38.97;;;17.85;;
42364;SDS011;28498;54.400;18.566;2024-01-30T09:07:06;34.35;;;18.38;;
42364;SDS011;28498;54.400;18.566;2024-01-30T09:09:39;39.28;;;17.85;;
42364;SDS011;28498;54.400;18.566;2024-01-30T09:12:07;34.63;;;18.50;;
42364;SDS011;28498;54.400;18.566;2024-01-30T09:14:38;43.22;;;19.20;;
42364;SDS011;28498;54.400;18.566;2024-01-30T09:17:06;40.42;;;18.00;;
42364;SDS011;28498;54.400;18.566;2024-01-30T09:19:34;40.50;;;17.88;;
42364;SDS011;28498;54.400;18.566;2024-01-30T09:22:02;35.92;;;18.17;;
42364;SDS011;28498;54.400;18.566;2024-01-30T09:24:30;36.15;;;16.80;;
42364;SDS011;28498;54.400;18.566;2024-01-30T09:26:57;38.22;;;17.83;;
42364;SDS011;28498;54.400;18.566;2024-01-30T09:29:24;41.65;;;18.50;;
42364;SDS011;28498;54.400;18.566;2024-01-30T09:31:51;36.47;;;17.90;;
42364;SDS011;28498;54.400;18.566;2024-01-30T09:34:18;35.58;;;17.65;;
42364;SDS011;28498;54.400;18.566;2024-01-30T09:36:46;35.08;;;17.15;;
42364;SDS011;28498;54.400;18.566;2024-01-30T09:39:13;32.17;;;17.35;;
42364;SDS011;28498;54.400;18.566;2024-01-30T09:41:55;37.22;;;17.88;;
42364;SDS011;28498;54.400;18.566;2024-01-30T09:44:32;36.85;;;17.63;;
42364;SDS011;28498;54.400;18.566;2024-01-30T09:47:01;38.70;;;17.33;;
42364;SDS011;28498;54.400;18.566;2024-01-30T09:49:32;32.97;;;16.17;;
42364;SDS011;28498;54.400;18.566;2024-01-30T09:52:04;32.75;;;17.48;;
42364;SDS011;28498;54.400;18.566;2024-01-30T09:54:32;34.17;;;16.45;;
42364;SDS011;28498;54.400;18.566;2024-01-30T09:57:02;37.15;;;17.42;;
42364;SDS011;28498;54.400;18.566;2024-01-30T09:59:30;34.47;;;17.80;;
42364;SDS011;28498;54.400;18.566;2024-01-30T10:01:57;35.33;;;17.90;;
42364;SDS011;28498;54.400;18.566;2024-01-30T10:04:25;33.13;;;16.02;;
42364;SDS011;28498;54.400;18.566;2024-01-30T10:06:52;33.35;;;16.60;;
42364;SDS011;28498;54.400;18.566;2024-01-30T10:09:19;34.65;;;16.58;;
42364;SDS011;28498;54.400;18.566;2024-01-30T10:11:46;36.83;;;19.10;;
42364;SDS011;28498;54.400;18.566;2024-01-30T10:14:15;41.60;;;19.30;;
42364;SDS011;28498;54.400;18.566;2024-01-30T10:16:42;40.55;;;19.33;;
42364;SDS011;28498;54.400;18.566;2024-01-30T10:19:11;41.85;;;19.42;;
42364;SDS011;28498;54.400;18.566;2024-01-30T10:21:39;41.95;;;20.70;;
42364;SDS011;28498;54.400;18.566;2024-01-30T10:24:06;38.05;;;19.38;;
42364;SDS011;28498;54.400;18.566;2024-01-30T10:26:34;41.40;;;19.80;;
42364;SDS011;28498;54.400;18.566;2024-01-30T10:29:01;39.70;;;20.67;;
42364;SDS011;28498;54.400;18.566;2024-01-30T10:31:28;42.95;;;22.52;;
42364;SDS011;28498;54.400;18.566;2024-01-30T10:33:56;40.42;;;21.33;;
42364;SDS011;28498;54.400;18.566;2024-01-30T10:36:39;44.63;;;22.85;;
42364;SDS011;28498;54.400;18.566;2024-01-30T10:39:10;46.15;;;21.92;;
42364;SDS011;28498;54.400;18.566;2024-01-30T10:41:42;42.97;;;22.25;;
42364;SDS011;28498;54.400;18.566;2024-01-30T10:44:10;43.35;;;22.10;;
42364;SDS011;28498;54.400;18.566;2024-01-30T10:46:38;46.13;;;21.48;;
42364;SDS011;28498;54.400;18.566;2024-01-30T10:49:08;46.58;;;22.23;;
42364;SDS011;28498;54.400;18.566;2024-01-30T10:51:36;43.08;;;23.17;;
42364;SDS011;28498;54.400;18.566;2024-01-30T10:54:05;50.25;;;24.33;;
42364;SDS011;28498;54.400;18.566;2024-01-30T10:56:33;44.42;;;22.90;;
42364;SDS011;28498;54.400;18.566;2024-01-30T10:59:02;48.78;;;23.92;;
42364;SDS011;28498;54.400;18.566;2024-01-30T11:01:30;49.90;;;23.75;;
42364;SDS011;28498;54.400;18.566;2024-01-30T11:03:57;45.95;;;24.30;;
42364;SDS011;28498;54.400;18.566;2024-01-30T11:06:25;46.60;;;24.13;;
42364;SDS011;28498;54.400;18.566;2024-01-30T11:14:27;49.92;;;23.05;;
42364;SDS011;28498;54.400;18.566;2024-01-30T11:16:59;43.28;;;22.90;;
42364;SDS011;28498;54.400;18.566;2024-01-30T11:19:27;40.25;;;21.52;;
42364;SDS011;28498;54.400;18.566;2024-01-30T11:21:57;39.70;;;21.75;;
42364;SDS011;28498;54.400;18.566;2024-01-30T11:24:24;47.70;;;24.40;;
42364;SDS011;28498;54.400;18.566;2024-01-30T11:26:55;45.63;;;22.00;;
42364;SDS011;28498;54.400;18.566;2024-01-30T11:31:55;44.95;;;24.20;;
42364;SDS011;28498;54.400;18.566;2024-01-30T11:34:23;49.67;;;23.20;;
42364;SDS011;28498;54.400;18.566;2024-01-30T11:36:52;46.15;;;22.77;;
42364;SDS011;28498;54.400;18.566;2024-01-30T11:39:25;48.85;;;24.08;;
42364;SDS011;28498;54.400;18.566;2024-01-30T11:41:53;46.28;;;24.10;;
42364;SDS011;28498;54.400;18.566;2024-01-30T11:44:21;51.85;;;25.17;;
42364;SDS011;28498;54.400;18.566;2024-01-30T11:46:49;45.30;;;24.25;;
42364;SDS011;28498;54.400;18.566;2024-01-30T11:49:16;50.35;;;25.00;;
42364;SDS011;28498;54.400;18.566;2024-01-30T11:51:45;48.15;;;23.13;;
42364;SDS011;28498;54.400;18.566;2024-01-30T11:54:18;47.70;;;23.13;;
42364;SDS011;28498;54.400;18.566;2024-01-30T11:56:45;47.35;;;22.75;;
42364;SDS011;28498;54.400;18.566;2024-01-30T11:59:12;44.53;;;23.83;;
42364;SDS011;28498;54.400;18.566;2024-01-30T12:01:40;39.55;;;22.73;;
42364;SDS011;28498;54.400;18.566;2024-01-30T12:04:08;51.58;;;25.27;;
42364;SDS011;28498;54.400;18.566;2024-01-30T12:06:37;47.38;;;22.88;;
42364;SDS011;28498;54.400;18.566;2024-01-30T12:09:05;49.72;;;24.13;;
42364;SDS011;28498;54.400;18.566;2024-01-30T12:11:47;44.53;;;22.92;;
42364;SDS011;28498;54.400;18.566;2024-01-30T12:14:16;41.88;;;21.88;;
42364;SDS011;28498;54.400;18.566;2024-01-30T12:16:47;41.25;;;22.20;;
42364;SDS011;28498;54.400;18.566;2024-01-30T12:19:25;48.05;;;22.98;;
42364;SDS011;28498;54.400;18.566;2024-01-30T12:21:58;48.15;;;27.13;;
42364;SDS011;28498;54.400;18.566;2024-01-30T12:24:29;41.50;;;24.00;;
42364;SDS011;28498;54.400;18.566;2024-01-30T12:26:59;38.05;;;21.23;;
42364;SDS011;28498;54.400;18.566;2024-01-30T12:29:26;46.42;;;21.40;;
42364;SDS011;28498;54.400;18.566;2024-01-30T12:32:00;43.72;;;20.55;;
42364;SDS011;28498;54.400;18.566;2024-01-30T12:34:27;40.40;;;20.17;;
42364;SDS011;28498;54.400;18.566;2024-01-30T12:36:56;42.70;;;20.73;;
42364;SDS011;28498;54.400;18.566;2024-01-30T12:39:24;35.38;;;19.35;;
42364;SDS011;28498;54.400;18.566;2024-01-30T12:41:51;38.53;;;18.73;;
42364;SDS011;28498;54.400;18.566;2024-01-30T12:44:18;36.88;;;17.52;;
42364;SDS011;28498;54.400;18.566;2024-01-30T12:46:46;31.85;;;18.20;;
42364;SDS011;28498;54.400;18.566;2024-01-30T12:49:14;35.15;;;17.40;;
42364;SDS011;28498;54.400;18.566;2024-01-30T12:51:41;31.50;;;16.60;;
42364;SDS011;28498;54.400;18.566;2024-01-30T12:54:08;41.90;;;18.83;;
42364;SDS011;28498;54.400;18.566;2024-01-30T12:56:35;40.95;;;18.90;;
42364;SDS011;28498;54.400;18.566;2024-01-30T12:59:02;36.30;;;18.67;;
42364;SDS011;28498;54.400;18.566;2024-01-30T13:01:29;31.63;;;14.95;;
42364;SDS011;28498;54.400;18.566;2024-01-30T13:03:56;21.65;;;11.80;;
42364;SDS011;28498;54.400;18.566;2024-01-30T13:06:25;27.27;;;12.40;;
42364;SDS011;28498;54.400;18.566;2024-01-30T13:08:52;22.48;;;12.48;;
42364;SDS011;28498;54.400;18.566;2024-01-30T13:11:19;21.40;;;11.18;;
42364;SDS011;28498;54.400;18.566;2024-01-30T13:13:47;17.90;;;10.57;;
42364;SDS011;28498;54.400;18.566;2024-01-30T13:16:14;23.35;;;11.20;;
42364;SDS011;28498;54.400;18.566;2024-01-30T13:18:43;21.77;;;11.55;;
42364;SDS011;28498;54.400;18.566;2024-01-30T13:21:10;19.55;;;11.23;;
42364;SDS011;28498;54.400;18.566;2024-01-30T13:23:37;20.38;;;11.55;;
42364;SDS011;28498;54.400;18.566;2024-01-30T13:26:04;22.48;;;10.90;;
42364;SDS011;28498;54.400;18.566;2024-01-30T13:28:31;18.88;;;10.95;;
42364;SDS011;28498;54.400;18.566;2024-01-30T13:30:59;21.05;;;10.68;;
42364;SDS011;28498;54.400;18.566;2024-01-30T13:33:26;22.88;;;11.32;;
42364;SDS011;28498;54.400;18.566;2024-01-30T13:35:53;20.70;;;10.18;;
42364;SDS011;28498;54.400;18.566;2024-01-30T13:38:20;21.90;;;10.63;;
42364;SDS011;28498;54.400;18.566;2024-01-30T13:40:47;20.00;;;10.57;;
42364;SDS011;28498;54.400;18.566;2024-01-30T13:43:14;20.85;;;10.40;;
42364;SDS011;28498;54.400;18.566;2024-01-30T13:45:43;20.40;;;10.98;;
42364;SDS011;28498;54.400;18.566;2024-01-30T13:48:10;18.27;;;9.82;;
42364;SDS011;28498;54.400;18.566;2024-01-30T13:50:37;22.52;;;10.80;;
42364;SDS011;28498;54.400;18.566;2024-01-30T13:53:04;25.13;;;12.90;;
42364;SDS011;28498;54.400;18.566;2024-01-30T13:55:31;27.55;;;14.50;;
42364;SDS011;28498;54.400;18.566;2024-01-30T13:57:58;19.67;;;11.38;;
42364;SDS011;28498;54.400;18.566;2024-01-30T14:00:26;29.67;;;13.85;;
42364;SDS011;28498;54.400;18.566;2024-01-30T14:02:53;37.88;;;15.77;;
42364;SDS011;28498;54.400;18.566;2024-01-30T14:05:24;23.08;;;12.43;;
42364;SDS011;28498;54.400;18.566;2024-01-30T14:07:52;27.70;;;13.00;;
42364;SDS011;28498;54.400;18.566;2024-01-30T14:10:19;24.73;;;11.80;;
42364;SDS011;28498;54.400;18.566;2024-01-30T14:12:47;26.48;;;12.20;;
42364;SDS011;28498;54.400;18.566;2024-01-30T14:15:17;23.95;;;11.63;;
42364;SDS011;28498;54.400;18.566;2024-01-30T14:17:54;23.20;;;11.98;;
42364;SDS011;28498;54.400;18.566;2024-01-30T14:20:22;25.35;;;12.88;;